Time;durP1;ratioP1;P1;durP2;ratioP2;P2;SDS_P1;SDS_P2;PMS_P1;PMS_P2;Temp;Humidity;BMP_temperature;BMP_pressure;BME280_temperature;BME280_humidity;BME280_pressure;Samples;Min_cycle;Max_cycle;Signal;HPM_P1;HPM_P2
2022/07/22 00:03:08;;;;;;;29.98;12.48;;;;;;;18.31;100.00;101116.09;8390742;28;20037;-61
2022/07/22 00:07:08;;;;;;;26.00;11.63;;;;;;;18.30;100.00;101115.22;8391057;28;20047;-61
2022/07/22 00:11:09;;;;;;;21.63;10.80;;;;;;;18.32;100.00;101118.66;8388387;28;20390;-61
2022/07/22 00:15:09;;;;;;;21.13;11.35;;;;;;;18.31;100.00;101116.94;8388229;28;20040;-61
2022/07/22 00:19:10;;;;;;;16.38;9.57;;;;;;;18.25;100.00;101120.38;8387725;28;20032;-61
2022/07/22 00:23:10;;;;;;;18.83;10.18;;;;;;;18.29;100.00;101124.47;8381212;28;20059;-61
2022/07/22 00:27:11;;;;;;;17.88;10.02;;;;;;;18.27;100.00;101123.78;8388567;28;20051;-61
2022/07/22 00:31:11;;;;;;;21.23;9.90;;;;;;;18.22;100.00;101120.75;8389027;28;20086;-61
2022/07/22 00:35:12;;;;;;;20.85;10.07;;;;;;;18.17;100.00;101114.94;8387725;28;20076;-61
2022/07/22 00:39:12;;;;;;;23.33;9.75;;;;;;;18.18;100.00;101116.66;8387433;28;20044;-61
2022/07/22 00:43:13;;;;;;;16.98;9.48;;;;;;;18.22;100.00;101115.25;8387961;28;20032;-61
2022/07/22 00:47:13;;;;;;;19.15;10.32;;;;;;;18.29;100.00;101116.25;8382110;28;20068;-61
2022/07/22 00:51:14;;;;;;;21.02;10.25;;;;;;;18.27;100.00;101110.09;8388235;28;20123;-61
2022/07/22 00:55:14;;;;;;;19.50;10.77;;;;;;;18.26;100.00;101107.53;8387495;28;20052;-61
2022/07/22 00:59:15;;;;;;;30.90;10.67;;;;;;;18.26;100.00;101111.13;8392936;28;20041;-61
2022/07/22 01:03:16;;;;;;;20.23;11.35;;;;;;;18.24;100.00;101102.22;8388499;28;20286;-61
2022/07/22 01:07:17;;;;;;;23.90;11.43;;;;;;;18.24;100.00;101104.97;8387281;28;20094;-61
2022/07/22 01:11:19;;;;;;;15.70;10.43;;;;;;;18.28;100.00;101094.53;8388147;28;20094;-61
2022/07/22 01:15:20;;;;;;;18.48;12.02;;;;;;;18.36;100.00;101098.09;8387433;28;20044;-61
2022/07/22 01:19:20;;;;;;;24.95;11.55;;;;;;;18.34;100.00;101104.78;8387752;28;20040;-61
2022/07/22 01:23:21;;;;;;;22.38;11.85;;;;;;;18.27;100.00;101107.34;8387439;28;20033;-61
2022/07/22 01:27:21;;;;;;;25.80;12.30;;;;;;;18.29;100.00;101099.84;8387401;28;20090;-61
2022/07/22 01:31:29;;;;;;;20.00;10.43;;;;;;;18.28;100.00;101100.88;8388567;28;20183;-61
2022/07/22 01:35:29;;;;;;;25.95;11.57;;;;;;;18.30;100.00;101101.53;8396814;28;20416;-61
2022/07/22 01:39:30;;;;;;;21.23;10.83;;;;;;;18.28;100.00;101094.53;8380303;28;20063;-61
2022/07/22 01:43:31;;;;;;;25.08;10.60;;;;;;;18.22;100.00;101090.63;8386004;28;20282;-61
2022/07/22 01:47:31;;;;;;;24.05;11.05;;;;;;;18.16;100.00;101088.59;8385749;28;20044;-61
2022/07/22 01:51:31;;;;;;;19.87;9.83;;;;;;;18.16;100.00;101085.84;8384804;28;20064;-61
2022/07/22 01:55:32;;;;;;;24.27;10.77;;;;;;;18.15;100.00;101089.63;8385892;28;20328;-61
2022/07/22 01:59:32;;;;;;;21.13;10.00;;;;;;;18.13;100.00;101091.69;8382568;28;20515;-61
2022/07/22 02:03:32;;;;;;;21.57;10.70;;;;;;;18.11;100.00;101088.25;8385529;28;20628;-61
2022/07/22 02:07:33;;;;;;;20.25;9.65;;;;;;;18.15;100.00;101088.75;8374046;28;20271;-61
2022/07/22 02:11:33;;;;;;;19.77;10.20;;;;;;;18.19;100.00;101090.13;8384627;28;20044;-61
2022/07/22 02:15:34;;;;;;;21.23;10.63;;;;;;;18.24;100.00;101096.75;8385063;28;20493;-61
2022/07/22 02:19:34;;;;;;;23.45;10.13;;;;;;;18.21;100.00;101094.38;8379432;28;20116;-61
2022/07/22 02:23:35;;;;;;;23.58;8.70;;;;;;;18.23;100.00;101091.47;8382539;28;20181;-61
2022/07/22 02:27:36;;;;;;;18.00;9.00;;;;;;;18.30;100.00;101092.50;8384882;28;20476;-61
2022/07/22 02:31:36;;;;;;;20.13;10.45;;;;;;;18.27;100.00;101095.56;8383364;28;20040;-61
2022/07/22 02:35:36;;;;;;;13.85;8.73;;;;;;;18.22;100.00;101090.63;8384900;28;20125;-61
2022/07/22 02:39:37;;;;;;;19.95;11.07;;;;;;;18.19;100.00;101090.97;8385509;28;20047;-61
2022/07/22 02:43:37;;;;;;;27.15;12.57;;;;;;;18.20;100.00;101089.94;8383822;28;20040;-61
2022/07/22 02:47:55;;;;;;;19.35;11.07;;;;;;;18.17;100.00;101086.72;8384520;28;20128;-61
2022/07/22 02:51:55;;;;;;;30.00;11.90;;;;;;;18.17;100.00;101081.25;8380375;28;20511;-61
2022/07/22 02:55:56;;;;;;;27.45;12.02;;;;;;;18.09;100.00;101079.38;8384107;28;20431;-61
2022/07/22 02:59:56;;;;;;;22.07;10.97;;;;;;;18.15;100.00;101080.56;8382182;28;20119;-61
2022/07/22 03:03:57;;;;;;;28.67;11.90;;;;;;;18.10;100.00;101074.75;8384344;28;20271;-61
2022/07/22 03:07:57;;;;;;;19.83;11.35;;;;;;;18.16;100.00;101080.38;8380761;28;20079;-61
2022/07/22 03:11:57;;;;;;;28.47;13.33;;;;;;;18.09;100.00;101073.91;8384595;28;20039;-61
2022/07/22 03:15:58;;;;;;;22.77;10.90;;;;;;;18.08;100.00;101072.19;8384355;28;20278;-61
2022/07/22 03:19:59;;;;;;;25.08;10.55;;;;;;;18.15;100.00;101078.69;8397635;28;20282;-61
2022/07/22 03:23:59;;;;;;;19.55;10.27;;;;;;;18.14;100.00;101085.16;8383864;28;20040;-61
2022/07/22 03:27:59;;;;;;;17.42;10.10;;;;;;;18.13;100.00;101074.41;8383037;28;20457;-61
2022/07/22 03:32:00;;;;;;;24.33;10.10;;;;;;;18.10;100.00;101072.88;8381807;28;20036;-61
2022/07/22 03:36:00;;;;;;;21.45;9.90;;;;;;;18.09;100.00;101073.03;8381798;28;20279;-61
2022/07/22 03:40:00;;;;;;;21.20;10.20;;;;;;;18.09;100.00;101073.91;8390272;28;20040;-61
2022/07/22 03:44:01;;;;;;;15.67;9.73;;;;;;;18.08;100.00;101072.19;8390092;28;20279;-61
2022/07/22 03:48:01;;;;;;;25.25;9.60;;;;;;;18.08;100.00;101069.44;8390395;28;20358;-61
2022/07/22 03:52:01;;;;;;;18.20;9.43;;;;;;;18.03;100.00;101063.66;8390057;28;20040;-61
2022/07/22 03:56:02;;;;;;;17.30;8.60;;;;;;;18.04;100.00;101064.50;8389591;28;20497;-61
2022/07/22 04:00:05;;;;;;;18.48;8.80;;;;;;;17.97;100.00;101063.50;8388230;28;20267;-61
2022/07/22 04:04:05;;;;;;;19.90;10.20;;;;;;;18.02;100.00;101061.94;8391493;28;20040;-61
2022/07/22 04:08:05;;;;;;;17.83;9.40;;;;;;;18.02;100.00;101061.94;8394355;28;20033;-61
2022/07/22 04:12:06;;;;;;;24.10;10.45;;;;;;;18.00;100.00;101063.16;8389509;28;20472;-61
2022/07/22 04:16:07;;;;;;;16.60;9.10;;;;;;;17.91;100.00;101070.53;8389443;28;20122;-61
2022/07/22 04:20:08;;;;;;;17.45;9.60;;;;;;;17.96;100.00;101067.28;8388453;28;20056;-61
2022/07/22 04:24:08;;;;;;;22.73;9.65;;;;;;;17.91;100.00;101073.28;8387386;28;20519;-61
2022/07/22 04:28:09;;;;;;;19.67;8.35;;;;;;;17.98;100.00;101074.28;8386799;28;20370;-61
2022/07/22 04:32:09;;;;;;;17.05;9.20;;;;;;;17.99;100.00;101072.41;8372727;28;20127;-61
2022/07/22 04:36:10;;;;;;;21.65;9.13;;;;;;;17.98;100.00;101074.28;8383079;28;20055;-61
2022/07/22 04:40:11;;;;;;;22.38;8.73;;;;;;;17.99;100.00;101078.69;8389055;28;20048;-61
2022/07/22 04:44:11;;;;;;;16.63;9.20;;;;;;;17.87;100.00;101068.31;8388028;28;20024;-61
2022/07/22 04:48:12;;;;;;;15.37;8.97;;;;;;;17.97;100.00;101069.84;8387958;28;20035;-61
2022/07/22 04:52:12;;;;;;;21.73;9.52;;;;;;;17.96;100.00;101073.56;8382818;28;20290;-61
2022/07/22 04:56:13;;;;;;;17.25;8.65;;;;;;;17.97;100.00;101085.38;8371811;28;20067;-61
2022/07/22 05:00:15;;;;;;;24.88;9.02;;;;;;;18.01;100.00;101081.25;8385593;28;20135;-61
2022/07/22 05:04:16;;;;;;;19.70;10.13;;;;;;;17.94;100.00;101086.59;8389272;28;20119;-61
2022/07/22 05:08:16;;;;;;;21.13;9.47;;;;;;;17.85;100.00;101092.25;8394721;28;20036;-61
2022/07/22 05:12:16;;;;;;;25.80;10.80;;;;;;;17.86;100.00;101081.13;8387068;28;20287;-61
2022/07/22 05:16:17;;;;;;;21.85;9.73;;;;;;;17.92;100.00;101085.91;8387508;28;20127;-61
2022/07/22 05:20:18;;;;;;;18.25;9.63;;;;;;;17.94;100.00;101070.19;8388590;28;20041;-61
2022/07/22 05:24:19;;;;;;;21.65;9.40;;;;;;;17.95;100.00;101074.63;8395145;28;20137;-61
2022/07/22 05:28:19;;;;;;;18.10;10.30;;;;;;;17.94;100.00;101064.72;8379392;28;20066;-61
2022/07/22 05:32:20;;;;;;;19.25;9.27;;;;;;;17.97;100.00;101069.84;8385108;28;20045;-61
2022/07/22 05:36:20;;;;;;;22.63;10.02;;;;;;;17.97;100.00;101075.31;8386232;28;20209;-61
2022/07/22 05:40:20;;;;;;;22.17;9.48;;;;;;;17.90;100.00;101074.28;8384831;28;20037;-61
2022/07/22 05:44:21;;;;;;;12.63;6.63;;;;;;;17.83;100.00;101073.28;8384360;28;20044;-61
2022/07/22 05:48:21;;;;;;;15.80;8.43;;;;;;;17.93;100.00;101073.94;8383982;28;20504;-61
2022/07/22 05:52:22;;;;;;;11.05;6.90;;;;;;;17.94;100.00;101066.59;8389794;28;20075;-61
2022/07/22 05:56:22;;;;;;;14.85;7.85;;;;;;;17.95;100.00;101065.53;8377842;28;20054;-61
2022/07/22 06:00:23;;;;;;;18.58;9.05;;;;;;;17.94;100.00;101070.19;8378374;28;20048;-61
2022/07/22 06:04:23;;;;;;;19.40;9.43;;;;;;;17.99;100.00;101070.50;8378773;28;20548;-61
2022/07/22 06:08:24;;;;;;;18.45;9.73;;;;;;;17.94;100.00;101064.72;8373969;28;20032;-61
2022/07/22 06:12:24;;;;;;;15.20;10.05;;;;;;;18.01;100.00;101073.91;8374806;28;20044;-61
2022/07/22 06:16:25;;;;;;;19.65;10.15;;;;;;;18.07;100.00;101066.88;8376208;28;20044;-61
2022/07/22 06:20:25;;;;;;;17.42;10.80;;;;;;;17.97;100.00;101064.38;8374218;28;20040;-61
2022/07/22 06:24:26;;;;;;;21.40;10.85;;;;;;;17.97;100.00;101064.38;8373440;28;20075;-61
2022/07/22 06:28:26;;;;;;;27.08;11.63;;;;;;;18.10;100.00;101070.13;8368401;28;20037;-61
2022/07/22 06:32:26;;;;;;;24.38;10.50;;;;;;;18.08;100.00;101071.34;8378756;28;20425;-61
2022/07/22 06:36:27;;;;;;;28.00;11.17;;;;;;;17.99;100.00;101065.03;8379376;28;20049;-61
2022/07/22 06:40:27;;;;;;;19.60;9.77;;;;;;;18.01;100.00;101057.50;8374387;28;20263;-61
2022/07/22 06:44:28;;;;;;;21.33;10.70;;;;;;;17.96;100.00;101073.56;8376923;28;20848;-62
2022/07/22 06:48:28;;;;;;;15.85;8.80;;;;;;;17.95;100.00;101065.53;8377168;28;20049;-61
2022/07/22 06:52:28;;;;;;;21.55;10.57;;;;;;;18.02;100.00;101067.41;8371088;28;20059;-61
2022/07/22 06:56:29;;;;;;;13.98;8.63;;;;;;;17.93;100.00;101064.88;8374837;28;20159;-61
2022/07/22 07:00:29;;;;;;;22.48;9.88;;;;;;;17.99;100.00;101067.75;8377339;28;20411;-61
2022/07/22 07:04:30;;;;;;;19.83;9.27;;;;;;;17.91;100.00;101062.31;8373978;28;20504;-61
2022/07/22 07:08:30;;;;;;;18.73;10.32;;;;;;;17.98;100.00;101063.31;8374380;28;20500;-61
2022/07/22 07:12:31;;;;;;;20.20;10.15;;;;;;;18.03;100.00;101073.75;8376789;28;20140;-61
2022/07/22 07:16:31;;;;;;;17.85;9.88;;;;;;;18.01;100.00;101062.97;8377687;28;20036;-61
2022/07/22 07:20:31;;;;;;;15.27;9.98;;;;;;;17.98;100.00;101055.13;8379377;28;20044;-61
2022/07/22 07:24:32;;;;;;;16.67;9.77;;;;;;;18.11;100.00;101055.41;8380094;28;20581;-61
2022/07/22 07:28:33;;;;;;;22.33;9.50;;;;;;;18.20;100.00;101059.00;8380801;28;20040;-61
2022/07/22 07:32:33;;;;;;;17.25;9.80;;;;;;;18.20;100.00;101054.34;8385171;28;20072;-62
2022/07/22 07:36:33;;;;;;;17.65;10.27;;;;;;;18.32;100.00;101058.41;8369897;28;20058;-62
2022/07/22 07:40:34;;;;;;;19.08;9.55;;;;;;;18.33;100.00;101049.16;8373513;28;20070;-62
2022/07/22 07:44:34;;;;;;;21.83;9.82;;;;;;;18.62;100.00;101049.41;8377195;28;20051;-61
2022/07/22 07:48:35;;;;;;;17.50;9.20;;;;;;;18.92;100.00;101056.78;8377532;28;20040;-61
2022/07/22 07:52:47;;;;;;;16.45;8.43;;;;;;;18.99;100.00;101041.31;8380738;28;20051;-61
2022/07/22 07:56:47;;;;;;;18.33;8.63;;;;;;;19.23;100.00;101049.34;8375246;28;20055;-61
2022/07/22 08:00:48;;;;;;;14.50;8.43;;;;;;;19.39;100.00;101054.72;8370190;28;20564;-61
2022/07/22 08:04:48;;;;;;;22.77;10.75;;;;;;;19.49;100.00;101047.09;8378899;28;20148;-61
2022/07/22 08:08:48;;;;;;;15.50;10.30;;;;;;;19.60;100.00;101050.44;8371329;28;20399;-61
2022/07/22 08:12:50;;;;;;;21.83;10.30;;;;;;;19.76;100.00;101050.28;8378670;28;20282;-61
2022/07/22 08:16:51;;;;;;;26.90;10.57;;;;;;;19.97;100.00;101053.97;8368164;28;20048;-61
2022/07/22 08:20:51;;;;;;;20.35;9.82;;;;;;;19.98;100.00;101054.84;8375607;28;20043;-62
2022/07/22 08:24:53;;;;;;;17.85;10.00;;;;;;;20.16;98.77;101052.63;8375352;28;20451;-62
2022/07/22 08:28:54;;;;;;;21.65;11.38;;;;;;;20.18;96.75;101045.88;8378239;28;20044;-62
2022/07/22 08:32:55;;;;;;;21.63;12.88;;;;;;;20.07;95.45;101051.81;8371457;28;20504;-62
2022/07/22 08:36:56;;;;;;;24.75;12.27;;;;;;;20.06;95.42;101057.50;8364769;28;20041;-62
2022/07/22 08:40:56;;;;;;;19.88;10.70;;;;;;;20.23;96.75;101053.56;8366948;28;20145;-62
2022/07/22 08:44:57;;;;;;;22.67;12.40;;;;;;;19.80;94.21;101046.13;8363025;28;20194;-61
2022/07/22 08:49:00;;;;;;;19.27;10.88;;;;;;;19.83;91.47;101045.75;8367124;28;20113;-62
2022/07/22 08:53:01;;;;;;;23.63;12.25;;;;;;;19.80;92.92;101046.13;8368928;28;21049;-61
2022/07/22 08:57:01;;;;;;;25.80;12.65;;;;;;;19.87;92.12;101047.94;8378041;28;20083;-61
2022/07/22 09:01:17;;;;;;;21.35;11.35;;;;;;;20.06;90.99;101052.03;8368599;28;20049;-61
2022/07/22 09:05:19;;;;;;;21.45;12.20;;;;;;;20.15;89.30;101064.63;8362649;28;20045;-61
2022/07/22 09:09:33;;;;;;;19.42;11.27;;;;;;;20.21;89.84;101050.13;8369566;28;20128;-61
2022/07/22 09:13:33;;;;;;;24.15;13.43;;;;;;;20.54;87.71;101043.19;8369154;28;20447;-61
2022/07/22 09:17:36;;;;;;;25.15;13.35;;;;;;;20.73;86.99;101039.84;8364290;28;20036;-61
2022/07/22 09:21:38;;;;;;;23.98;15.23;;;;;;;20.84;85.71;101047.59;8366584;28;20043;-61
2022/07/22 09:25:40;;;;;;;30.35;15.82;;;;;;;21.28;83.90;101045.53;8357610;28;20552;-61
2022/07/22 09:29:49;;;;;;;25.10;17.38;;;;;;;21.64;82.40;101046.31;8353981;28;20028;-61
2022/07/22 09:33:50;;;;;;;23.08;14.20;;;;;;;22.14;81.47;101037.78;8355369;28;20045;-61
2022/07/22 09:37:57;;;;;;;29.75;17.02;;;;;;;22.70;78.11;101039.41;8341196;28;20506;-61
2022/07/22 09:42:00;;;;;;;24.85;16.63;;;;;;;22.10;78.66;101042.03;8359046;28;20404;-61
2022/07/22 09:46:00;;;;;;;27.08;19.17;;;;;;;21.79;79.19;101036.09;8355411;28;20433;-61
2022/07/22 09:50:01;;;;;;;30.55;19.23;;;;;;;22.10;78.57;101031.00;8352655;28;20324;-61
2022/07/22 09:54:02;;;;;;;32.45;20.52;;;;;;;21.69;79.57;101026.44;8350046;28;20041;-61
2022/07/22 09:58:03;;;;;;;28.85;19.30;;;;;;;21.49;77.89;101022.66;8356161;28;20032;-61
2022/07/22 10:02:06;;;;;;;28.85;20.25;;;;;;;21.46;77.75;101010.16;8367621;28;20044;-61
2022/07/22 10:06:07;;;;;;;28.05;18.90;;;;;;;21.96;78.00;101015.44;8352974;28;20041;-61
2022/07/22 10:10:10;;;;;;;32.28;19.98;;;;;;;21.88;77.88;101004.59;8348193;28;20052;-61
2022/07/22 10:14:13;;;;;;;28.17;18.15;;;;;;;21.55;78.11;101000.72;8368736;28;20032;-61
2022/07/22 10:18:16;;;;;;;28.52;18.10;;;;;;;21.80;76.25;101001.16;8365242;28;20040;-61
2022/07/22 10:26:55;;;;;;;24.23;16.98;;;;;;;25.28;66.58;100984.13;8307497;28;20399;-60
2022/07/22 10:31:18;;;;;;;22.52;16.52;;;;;;;25.90;64.34;100988.72;8280684;28;20061;-60
2022/07/22 10:35:21;;;;;;;24.50;17.13;;;;;;;24.32;67.33;100992.75;8297167;28;20041;-60
2022/07/22 10:39:22;;;;;;;26.77;17.17;;;;;;;23.33;70.12;100980.16;8306056;28;20288;-60
2022/07/22 10:43:27;;;;;;;25.90;17.77;;;;;;;23.53;70.58;100985.63;8305679;28;20042;-60
2022/07/22 10:47:51;;;;;;;25.40;16.65;;;;;;;24.66;66.52;100989.63;8307775;28;20041;-60
2022/07/22 10:52:10;;;;;;;24.80;17.60;;;;;;;24.02;67.16;100986.03;8306896;28;20053;-60
2022/07/22 10:56:35;;;;;;;28.55;19.25;;;;;;;24.10;69.58;100983.03;8304502;28;20053;-60
2022/07/22 11:00:35;;;;;;;26.13;16.98;;;;;;;25.21;64.28;100988.88;8291904;28;20076;-60
2022/07/22 11:04:37;;;;;;;27.73;17.52;;;;;;;24.38;68.97;100989.09;8303030;28;20052;-60
2022/07/22 11:08:38;;;;;;;27.00;17.42;;;;;;;24.56;66.96;100978.19;8303272;28;20037;-60
2022/07/22 11:12:39;;;;;;;24.65;16.27;;;;;;;26.50;63.56;100974.81;8305041;28;20530;-60
2022/07/22 11:16:39;;;;;;;25.17;15.50;;;;;;;27.34;59.77;100976.63;8306004;28;20065;-60
2022/07/22 11:20:41;;;;;;;23.10;15.05;;;;;;;27.82;59.23;100964.25;8305968;28;20128;-60
2022/07/22 11:24:42;;;;;;;23.67;16.33;;;;;;;27.85;58.53;100962.91;8307419;28;20176;-60
2022/07/22 11:28:44;;;;;;;21.67;15.02;;;;;;;26.43;60.17;100967.66;8311793;28;20063;-60
2022/07/22 11:32:45;;;;;;;25.15;15.50;;;;;;;27.74;59.06;100963.72;8310510;28;20049;-60
2022/07/22 11:36:47;;;;;;;23.73;15.88;;;;;;;26.07;61.39;100971.28;8295827;28;20057;-60
2022/07/22 11:40:47;;;;;;;18.10;12.85;;;;;;;27.01;60.56;100960.44;8288029;28;20044;-60
2022/07/22 11:44:48;;;;;;;17.40;12.03;;;;;;;27.46;59.85;100949.72;8283153;28;20070;-59
2022/07/22 11:48:49;;;;;;;16.80;11.27;;;;;;;25.91;62.89;100952.47;8287314;28;20724;-60
2022/07/22 11:52:53;;;;;;;23.37;13.07;;;;;;;24.42;68.27;100943.34;8284281;28;20038;-60
2022/07/22 11:56:53;;;;;;;;;;;;;;;24.46;67.25;100944.63;8280814;28;20045;-60
2022/07/22 12:00:53;;;;;;;24.30;12.77;;;;;;;24.93;66.30;100931.19;8282903;28;19921;-60
2022/07/22 12:04:54;;;;;;;24.63;13.87;;;;;;;27.66;64.01;100937.16;8284739;28;20061;-60
2022/07/22 12:09:05;;;;;;;19.77;12.15;;;;;;;27.01;61.04;100940.19;8287328;28;20121;-60
2022/07/22 12:13:05;;;;;;;22.77;13.57;;;;;;;25.57;64.19;100930.88;8286220;28;20044;-60
2022/07/22 12:17:10;;;;;;;21.05;13.65;;;;;;;24.74;66.79;100926.59;8283644;28;20046;-61
2022/07/22 12:21:11;;;;;;;18.85;13.05;;;;;;;24.81;68.10;100921.91;8273751;28;20399;-60
2022/07/22 12:25:11;;;;;;;23.27;14.32;;;;;;;24.73;67.13;100922.16;8276377;28;20073;-60
2022/07/22 12:29:22;;;;;;;25.13;13.97;;;;;;;24.27;69.79;100913.25;8272575;28;20053;-61
2022/07/22 12:33:22;;;;;;;20.83;13.25;;;;;;;24.64;69.37;100919.88;8278668;28;20339;-61
2022/07/22 12:37:29;;;;;;;20.50;13.55;;;;;;;24.61;70.18;100909.25;8262180;28;20068;-61
2022/07/22 12:41:29;;;;;;;21.13;13.23;;;;;;;24.51;68.86;100914.38;8274525;28;20041;-61
2022/07/22 12:45:32;;;;;;;27.35;14.00;;;;;;;24.30;70.01;100909.19;8283706;28;20465;-61
2022/07/22 12:49:32;;;;;;;22.95;13.27;;;;;;;24.31;68.68;100897.06;8282458;28;20030;-61
2022/07/22 12:53:36;;;;;;;26.15;15.40;;;;;;;24.44;69.61;100891.47;8280173;28;20042;-61
2022/07/22 12:57:36;;;;;;;22.20;13.73;;;;;;;24.00;70.65;100891.47;8274383;28;20387;-61
2022/07/22 13:01:36;;;;;;;21.70;13.45;;;;;;;24.22;68.46;100895.63;8280083;28;20277;-61
2022/07/22 13:05:37;;;;;;;20.27;13.30;;;;;;;24.35;69.47;100884.50;8279537;28;20488;-61
2022/07/22 13:09:37;;;;;;;23.52;13.98;;;;;;;24.68;68.57;100887.94;8280233;28;20042;-61
2022/07/22 13:13:38;;;;;;;22.37;14.13;;;;;;;24.28;69.82;100889.22;8278551;28;20069;-61
2022/07/22 13:17:40;;;;;;;19.15;13.13;;;;;;;24.54;68.20;100880.75;8281885;28;20326;-61
2022/07/22 13:21:40;;;;;;;20.73;14.35;;;;;;;24.33;68.52;100881.09;8281236;28;20038;-61
2022/07/22 13:25:41;;;;;;;18.42;13.32;;;;;;;24.05;68.52;100877.84;8283072;28;20048;-61
2022/07/22 13:29:41;;;;;;;22.88;14.90;;;;;;;24.42;68.91;100877.00;8286613;28;20565;-61
2022/07/22 13:33:44;;;;;;;24.17;15.80;;;;;;;24.86;67.89;100865.91;8282008;28;20034;-61
2022/07/22 13:37:45;;;;;;;29.70;15.63;;;;;;;24.58;68.71;100865.44;8282765;28;20129;-61
2022/07/22 13:41:45;;;;;;;26.38;16.05;;;;;;;24.61;69.48;100853.94;8281986;28;20051;-61
2022/07/22 13:45:45;;;;;;;24.27;15.13;;;;;;;24.33;69.19;100850.69;8281915;28;20047;-61
2022/07/22 13:49:46;;;;;;;25.10;15.40;;;;;;;24.39;69.26;100855.34;8282449;28;20975;-61
2022/07/22 13:53:46;;;;;;;26.75;15.00;;;;;;;24.39;69.24;100855.34;8280496;28;20030;-61
2022/07/22 13:57:47;;;;;;;26.73;16.87;;;;;;;24.30;68.70;100846.47;8282623;28;20042;-61
2022/07/22 14:01:48;;;;;;;24.00;16.07;;;;;;;24.15;68.43;100853.38;8279366;28;20285;-61
2022/07/22 14:05:48;;;;;;;23.15;15.80;;;;;;;24.35;68.17;100854.94;8277618;28;20841;-61
2022/07/22 14:09:49;;;;;;;24.42;16.15;;;;;;;24.60;69.64;100842.00;8280393;28;20542;-61
2022/07/22 14:13:49;;;;;;;25.30;17.27;;;;;;;24.50;68.77;100851.88;8279540;28;20038;-61
2022/07/22 14:17:49;;;;;;;24.15;15.52;;;;;;;24.85;67.56;100855.88;8268588;28;20363;-61
2022/07/22 14:21:50;;;;;;;24.70;15.57;;;;;;;24.79;67.22;100834.66;8273116;28;20521;-61
2022/07/22 14:25:50;;;;;;;22.20;14.40;;;;;;;24.90;66.01;100834.78;8266395;28;20414;-61
2022/07/22 14:29:51;;;;;;;21.88;14.95;;;;;;;25.00;66.47;100839.78;8274997;28;20074;-61
2022/07/22 14:33:53;;;;;;;26.27;16.17;;;;;;;24.74;67.31;100843.63;8254026;28;20031;-61
2022/07/22 14:37:53;;;;;;;23.05;16.88;;;;;;;24.61;68.69;100845.63;8278259;28;20552;-61
2022/07/22 14:41:54;;;;;;;23.67;16.45;;;;;;;24.54;69.54;100831.00;8267519;28;20466;-61
2022/07/22 14:45:54;;;;;;;23.70;15.98;;;;;;;24.79;68.76;100835.50;8277800;28;20050;-61
2022/07/22 14:49:55;;;;;;;25.80;17.83;;;;;;;24.74;67.94;100823.44;8268087;28;20038;-61
2022/07/22 14:53:55;;;;;;;24.10;16.30;;;;;;;24.91;68.48;100819.03;8272644;28;20274;-61
2022/07/22 14:57:55;;;;;;;22.50;16.42;;;;;;;24.98;68.57;100817.06;8275718;28;20038;-61
2022/07/22 15:01:56;;;;;;;22.70;15.20;;;;;;;24.94;67.68;100826.88;8276845;28;20034;-61
2022/07/22 15:05:56;;;;;;;23.88;16.08;;;;;;;25.00;67.60;100826.81;8263469;28;20821;-61
2022/07/22 15:09:57;;;;;;;23.92;15.75;;;;;;;25.14;67.02;100822.00;8271805;28;20200;-61
2022/07/22 15:13:57;;;;;;;22.63;16.15;;;;;;;24.94;66.88;100810.28;8285768;28;20517;-61
2022/07/22 15:17:58;;;;;;;21.27;15.02;;;;;;;25.05;66.93;100806.78;8284407;28;20510;-61
2022/07/22 15:21:59;;;;;;;23.80;14.77;;;;;;;24.90;66.62;100803.50;8264426;28;20060;-61
2022/07/22 15:26:01;;;;;;;26.08;16.08;;;;;;;25.09;66.61;100785.84;8281525;28;20073;-61
2022/07/22 15:30:02;;;;;;;25.42;14.40;;;;;;;24.88;66.69;100786.28;8271794;28;20050;-61
2022/07/22 15:34:02;;;;;;;22.52;13.95;;;;;;;24.88;68.72;100797.34;8281996;28;20052;-61
2022/07/22 15:38:03;;;;;;;23.13;13.65;;;;;;;24.81;67.00;100788.25;8281247;28;20145;-61
2022/07/22 15:42:04;;;;;;;24.75;15.00;;;;;;;24.95;66.08;100778.78;8284842;28;20507;-61
2022/07/22 15:46:06;;;;;;;21.60;13.50;;;;;;;25.02;65.84;100768.47;8285937;28;20494;-61
2022/07/22 15:50:07;;;;;;;22.63;13.13;;;;;;;25.04;66.56;100766.34;8281737;28;20045;-61
2022/07/22 15:54:08;;;;;;;21.73;13.82;;;;;;;24.74;66.36;100754.28;8284787;28;20498;-61
2022/07/22 15:59:41;;;;;;;20.15;13.05;;;;;;;24.62;67.87;100750.53;8284962;28;20064;-61
2022/07/22 16:02:28;;;;;;;21.63;12.60;;;;;;;24.74;66.85;100754.28;8284954;28;20334;-61
2022/07/22 16:06:29;;;;;;;20.17;12.75;;;;;;;24.71;65.58;100743.69;8284426;28;20049;-61
2022/07/22 16:10:29;;;;;;;21.80;12.30;;;;;;;24.67;66.28;100742.44;8282904;28;20046;-61
2022/07/22 16:14:29;;;;;;;20.98;13.65;;;;;;;24.68;66.49;100738.59;8284563;28;20049;-61
2022/07/22 16:18:30;;;;;;;23.43;13.40;;;;;;;24.65;66.50;100741.81;8296164;28;20074;-61
2022/07/22 16:22:30;;;;;;;21.23;13.97;;;;;;;24.73;66.13;100755.38;8279063;28;20281;-61
2022/07/22 16:26:31;;;;;;;26.67;15.37;;;;;;;24.53;66.36;100762.94;8278813;28;20769;-61
2022/07/22 16:30:31;;;;;;;24.23;15.00;;;;;;;24.60;66.68;100769.25;8274544;28;20308;-61
2022/07/22 16:34:32;;;;;;;27.05;14.85;;;;;;;24.50;66.83;100760.63;8272572;28;20066;-61
2022/07/22 16:38:33;;;;;;;25.52;15.13;;;;;;;24.47;66.29;100758.31;8275572;28;20048;-61
2022/07/22 16:42:33;;;;;;;25.30;14.27;;;;;;;24.39;66.55;100753.06;8268254;28;20046;-61
2022/07/22 16:46:34;;;;;;;31.58;13.25;;;;;;;24.20;66.47;100749.38;8275316;28;20056;-61
2022/07/22 16:50:35;;;;;;;24.00;14.48;;;;;;;24.22;67.06;100749.16;8303512;28;20044;-61
2022/07/22 16:54:35;;;;;;;30.65;15.07;;;;;;;24.17;66.90;100760.03;8266425;28;20108;-61
2022/07/22 16:58:35;;;;;;;21.63;14.30;;;;;;;24.09;66.79;100752.03;8281170;28;20064;-61
2022/07/22 17:02:36;;;;;;;25.17;13.88;;;;;;;24.07;67.20;100756.91;8282103;28;20695;-61
2022/07/22 17:06:37;;;;;;;20.05;12.60;;;;;;;24.06;66.62;100749.69;8276034;28;20066;-61
2022/07/22 17:10:37;;;;;;;27.38;12.82;;;;;;;24.13;66.89;100756.00;8258012;28;20038;-61
2022/07/22 17:14:38;;;;;;;17.45;12.15;;;;;;;24.04;67.53;100751.81;8275978;28;20042;-61
2022/07/22 17:18:39;;;;;;;21.92;12.70;;;;;;;23.90;67.03;100755.69;8278513;28;20045;-61
2022/07/22 17:22:41;;;;;;;20.55;12.98;;;;;;;23.86;67.33;100744.25;8276623;28;20037;-61
2022/07/22 17:26:41;;;;;;;18.00;11.60;;;;;;;23.83;67.29;100738.31;8277149;28;20053;-61
2022/07/22 17:30:41;;;;;;;21.52;13.38;;;;;;;23.79;68.12;100737.06;8284309;28;20041;-61
2022/07/22 17:34:42;;;;;;;18.73;12.55;;;;;;;23.77;67.87;100739.19;8282376;28;20088;-61
2022/07/22 17:38:42;;;;;;;31.17;18.13;;;;;;;23.72;69.05;100744.56;8282249;28;20745;-61
2022/07/22 17:42:43;;;;;;;23.30;14.80;;;;;;;23.69;68.92;100736.72;8281736;28;20322;-61
2022/07/22 17:46:44;;;;;;;23.40;15.32;;;;;;;23.64;68.74;100739.28;8283129;28;20112;-61
2022/07/22 17:50:44;;;;;;;24.67;14.52;;;;;;;23.63;69.25;100726.53;8282440;28;20041;-61
2022/07/22 17:54:44;;;;;;;27.35;17.45;;;;;;;23.58;69.34;100723.59;8282595;28;20577;-61
2022/07/22 17:58:45;;;;;;;25.77;17.10;;;;;;;23.44;69.38;100717.28;8282521;28;20038;-61
2022/07/22 18:02:45;;;;;;;25.48;16.98;;;;;;;23.40;69.36;100720.69;8282206;28;20288;-61
2022/07/22 18:06:46;;;;;;;30.13;18.10;;;;;;;23.29;70.00;100715.88;8280575;28;20073;-61
2022/07/22 18:10:47;;;;;;;27.55;18.50;;;;;;;23.23;70.19;100719.47;8281134;28;20040;-61
2022/07/22 18:14:47;;;;;;;27.45;17.52;;;;;;;23.23;69.86;100724.97;8280578;28;20057;-61
2022/07/22 18:18:48;;;;;;;28.67;16.70;;;;;;;23.22;70.14;100735.16;8281555;28;20037;-61